createdAt,value
2023-02-17T00:01:33.177Z,5.90
2023-02-17T00:06:37.034Z,7.17
2023-02-17T00:11:40.812Z,7.63
2023-02-17T00:16:46.391Z,7.47
2023-02-17T00:21:52.763Z,7.07
2023-02-17T00:26:56.814Z,8.52
2023-02-17T00:32:01.037Z,6.93
2023-02-17T00:37:05.065Z,7.67
2023-02-17T00:42:09.812Z,5.73
2023-02-17T00:47:13.539Z,9.83
2023-02-17T00:52:17.385Z,8.13
2023-02-17T00:57:21.264Z,6.43
2023-02-17T01:02:25.033Z,7.50
2023-02-17T01:07:30.008Z,9.00
2023-02-17T01:12:33.807Z,10.10
2023-02-17T01:17:37.902Z,10.50
2023-02-17T01:22:42.072Z,8.47
2023-02-17T01:27:47.808Z,8.90
2023-02-17T01:32:51.799Z,5.65
2023-02-17T01:37:55.632Z,8.20
2023-02-17T01:43:00.267Z,6.93
2023-02-17T01:48:10.299Z,6.33
2023-02-17T01:53:18.899Z,6.30
2023-02-17T01:58:25.505Z,6.53
2023-02-17T02:03:33.588Z,7.80
2023-02-17T02:08:52.779Z,6.10
2023-02-17T02:13:59.092Z,6.13
2023-02-17T02:19:24.434Z,7.37
2023-02-17T02:24:46.282Z,6.70
2023-02-17T02:29:52.965Z,5.37
2023-02-17T02:35:38.053Z,6.47
2023-02-17T02:40:49.713Z,6.32
2023-02-17T02:45:53.523Z,6.40
2023-02-17T02:51:03.285Z,5.30
2023-02-17T02:56:14.762Z,6.73
2023-02-17T03:01:34.100Z,5.13
2023-02-17T03:06:47.438Z,5.50
2023-02-17T03:11:53.490Z,5.70
2023-02-17T03:16:57.426Z,5.18
2023-02-17T03:22:27.139Z,6.90
2023-02-17T03:27:31.376Z,5.87
2023-02-17T03:32:35.339Z,6.30
2023-02-17T03:37:39.507Z,4.97
2023-02-17T03:42:43.299Z,7.07
2023-02-17T03:47:47.284Z,6.63
2023-02-17T03:52:51.314Z,4.63
2023-02-17T03:57:55.036Z,8.13
2023-02-17T04:02:58.954Z,5.97
2023-02-17T04:08:02.833Z,4.97
2023-02-17T04:13:07.010Z,5.43
2023-02-17T04:18:11.018Z,5.43
2023-02-17T04:23:15.240Z,5.47
2023-02-17T04:28:19.969Z,5.10
2023-02-17T04:33:23.834Z,5.17
2023-02-17T04:38:29.610Z,6.57
2023-02-17T04:43:34.008Z,5.70
2023-02-17T04:48:37.985Z,5.40
2023-02-17T04:53:41.853Z,7.00
2023-02-17T04:58:45.640Z,5.17
2023-02-17T05:03:49.617Z,6.63
2023-02-17T05:08:54.662Z,5.60
2023-02-17T05:13:58.927Z,5.17
2023-02-17T05:19:03.011Z,7.13
2023-02-17T05:24:07.218Z,6.13
2023-02-17T05:29:11.270Z,5.73
2023-02-17T05:34:15.174Z,6.80
2023-02-17T05:39:19.250Z,6.73
2023-02-17T05:44:23.205Z,5.90
2023-02-17T05:49:27.912Z,5.20
2023-02-17T05:54:31.738Z,6.93
2023-02-17T05:59:35.453Z,5.27
2023-02-17T06:04:39.560Z,5.40
2023-02-17T06:09:43.432Z,5.57
2023-02-17T06:14:47.977Z,4.77
2023-02-17T06:19:52.113Z,5.10
2023-02-17T06:24:55.929Z,4.63
2023-02-17T06:29:59.916Z,3.85
2023-02-17T06:35:03.838Z,3.65
2023-02-17T06:40:09.120Z,3.15
2023-02-17T06:45:12.906Z,3.77
2023-02-17T06:50:16.986Z,3.97
2023-02-17T06:55:21.150Z,3.72
2023-02-17T07:00:25.111Z,3.92
2023-02-17T07:05:29.549Z,2.75
2023-02-17T07:10:34.152Z,3.03
2023-02-17T07:15:38.223Z,3.40
2023-02-17T07:20:42.418Z,2.85
2023-02-17T07:25:46.355Z,3.25
2023-02-17T07:30:50.438Z,2.97
2023-02-17T07:35:54.592Z,3.25
2023-02-17T07:40:58.513Z,3.22
2023-02-17T07:46:02.781Z,3.22
2023-02-17T07:51:12.332Z,3.20
2023-02-17T07:56:17.745Z,3.10
2023-02-17T08:01:25.266Z,2.85
2023-02-17T08:06:29.286Z,2.83
2023-02-17T08:11:51.687Z,3.03
2023-02-17T08:16:55.802Z,3.25
2023-02-17T08:22:00.939Z,3.25
2023-02-17T08:27:04.942Z,2.85
2023-02-17T08:32:10.430Z,3.30
2023-02-17T08:37:14.319Z,2.70
2023-02-17T08:42:18.914Z,2.55
2023-02-17T08:47:22.999Z,3.17
2023-02-17T08:52:26.844Z,3.20
2023-02-17T08:57:32.093Z,3.05
2023-02-17T09:02:36.587Z,3.20
2023-02-17T09:07:41.209Z,4.00
2023-02-17T09:12:45.134Z,2.72
2023-02-17T09:17:49.260Z,3.03
2023-02-17T09:22:53.514Z,3.00
2023-02-17T09:27:59.846Z,3.22
2023-02-17T09:33:06.268Z,3.42
2023-02-17T09:38:11.211Z,2.60
2023-02-17T09:43:27.629Z,3.83
2023-02-17T09:48:35.016Z,3.03
2023-02-17T09:53:50.449Z,3.17
2023-02-17T09:58:56.804Z,3.08
2023-02-17T10:04:08.364Z,4.05
2023-02-17T10:09:23.782Z,3.60
2023-02-17T10:14:41.549Z,2.95
2023-02-17T10:20:00.997Z,3.28
2023-02-17T10:25:17.667Z,3.58
2023-02-17T10:30:48.649Z,5.82
2023-02-17T10:36:15.423Z,5.40
2023-02-17T10:41:28.840Z,9.32
2023-02-17T10:46:33.824Z,10.50
2023-02-17T10:51:37.673Z,14.05
2023-02-17T10:56:55.215Z,13.00
2023-02-17T11:02:16.591Z,11.15
2023-02-17T11:07:27.663Z,11.38
2023-02-17T11:12:40.839Z,5.30
2023-02-17T11:17:46.379Z,4.60
2023-02-17T11:23:01.527Z,4.30
2023-02-17T11:28:12.458Z,12.07
2023-02-17T11:33:23.522Z,16.65
2023-02-17T11:38:49.936Z,23.02
2023-02-17T11:44:00.012Z,12.95
2023-02-17T11:49:28.614Z,7.28
2023-02-17T11:54:54.036Z,7.60
2023-02-17T12:00:06.094Z,6.20
2023-02-17T12:05:27.094Z,5.15
2023-02-17T12:10:52.765Z,4.57
2023-02-17T12:16:07.181Z,4.07
2023-02-17T12:21:27.198Z,5.30
2023-02-17T12:27:12.777Z,5.07
2023-02-17T12:32:39.756Z,4.20
2023-02-17T12:37:56.228Z,3.45
2023-02-17T12:43:28.023Z,3.67
2023-02-17T12:48:42.010Z,4.13
2023-02-17T12:54:06.301Z,4.72
2023-02-17T12:59:28.477Z,5.00
2023-02-17T13:04:35.216Z,4.55
2023-02-17T13:09:43.381Z,12.77
2023-02-17T13:15:03.711Z,15.07
2023-02-17T13:20:11.371Z,22.08
2023-02-17T13:25:37.125Z,16.50
2023-02-17T13:30:46.424Z,17.63
2023-02-17T13:35:50.852Z,14.95
2023-02-17T13:41:02.239Z,16.13
2023-02-17T13:46:07.153Z,13.35
2023-02-17T13:51:27.306Z,7.70
2023-02-17T13:56:33.348Z,6.78
2023-02-17T14:01:41.734Z,5.53
2023-02-17T14:06:45.609Z,19.75
2023-02-17T14:11:50.722Z,10.85
2023-02-17T14:17:04.024Z,8.25
2023-02-17T14:22:08.156Z,5.20
2023-02-17T14:27:15.579Z,4.38
2023-02-17T14:32:38.510Z,5.03
2023-02-17T14:37:45.882Z,3.97
2023-02-17T14:42:52.050Z,5.07
2023-02-17T14:47:57.489Z,4.00
2023-02-17T14:53:01.727Z,3.30
2023-02-17T14:58:05.950Z,3.30
2023-02-17T15:03:10.844Z,3.60
2023-02-17T15:08:18.465Z,2.95
2023-02-17T15:13:23.523Z,2.70
2023-02-17T15:18:28.227Z,2.38
2023-02-17T15:23:35.411Z,2.60
2023-02-17T15:28:39.703Z,2.65
2023-02-17T15:33:45.462Z,2.95
2023-02-17T15:38:51.968Z,3.38
2023-02-17T15:43:58.499Z,2.60
2023-02-17T15:49:03.324Z,3.30
2023-02-17T15:54:07.407Z,3.33
2023-02-17T15:59:22.247Z,3.15
2023-02-17T16:04:26.018Z,2.95
2023-02-17T16:09:30.118Z,3.13
2023-02-17T16:14:40.621Z,3.40
2023-02-17T16:19:44.668Z,3.38
2023-02-17T16:24:48.594Z,3.33
2023-02-17T16:29:53.345Z,3.60
2023-02-17T16:34:57.096Z,7.00
2023-02-17T16:40:01.483Z,3.75
2023-02-17T16:45:06.370Z,4.15
2023-02-17T16:50:38.162Z,3.90
2023-02-17T16:55:43.380Z,3.47
2023-02-17T17:00:49.323Z,4.75
2023-02-17T17:05:54.392Z,3.67
2023-02-17T17:10:58.919Z,4.60
2023-02-17T17:16:04.078Z,3.28
2023-02-17T17:21:07.939Z,3.35
2023-02-17T17:26:40.014Z,3.42
2023-02-17T17:31:44.090Z,3.80
2023-02-17T17:36:49.137Z,3.13
2023-02-17T17:41:53.135Z,3.40
2023-02-17T17:46:56.898Z,4.28
2023-02-17T17:52:00.715Z,4.77
2023-02-17T17:57:04.592Z,6.30
2023-02-17T18:02:09.585Z,5.63
2023-02-17T18:07:13.573Z,7.47
2023-02-17T18:12:20.595Z,5.53
2023-02-17T18:17:25.145Z,5.30
2023-02-17T18:22:29.424Z,5.72
2023-02-17T18:27:45.932Z,4.20
2023-02-17T18:32:50.392Z,6.13
2023-02-17T18:37:54.390Z,5.77
2023-02-17T18:42:58.387Z,5.27
2023-02-17T18:48:02.934Z,5.57
2023-02-17T18:53:06.703Z,7.60
2023-02-17T18:58:12.331Z,6.00
2023-02-17T19:03:16.515Z,5.17
2023-02-17T19:08:20.978Z,5.93
2023-02-17T19:13:24.807Z,4.43
2023-02-17T19:18:28.861Z,4.43
2023-02-17T19:23:32.910Z,5.70
2023-02-17T19:28:38.513Z,5.93
2023-02-17T19:33:44.846Z,5.33
2023-02-17T19:38:50.491Z,4.97
2023-02-17T19:43:54.184Z,5.33
2023-02-17T19:48:59.075Z,5.87
2023-02-17T19:54:03.502Z,5.23
2023-02-17T19:59:07.300Z,5.17
2023-02-17T20:04:11.743Z,4.47
2023-02-17T20:09:22.244Z,3.80
2023-02-17T20:14:26.087Z,4.60
2023-02-17T20:19:30.276Z,4.00
2023-02-17T20:24:35.177Z,4.83
2023-02-17T20:29:39.337Z,4.83
2023-02-17T20:34:44.078Z,4.80
2023-02-17T20:39:47.824Z,5.10
2023-02-17T20:44:51.731Z,6.20
2023-02-17T20:49:55.539Z,6.23
2023-02-17T20:54:59.546Z,5.23
2023-02-17T21:00:05.820Z,4.73
2023-02-17T21:05:09.856Z,4.75
2023-02-17T21:10:23.355Z,5.13
2023-02-17T21:15:28.399Z,4.77
2023-02-17T21:20:32.899Z,5.40
2023-02-17T21:25:39.006Z,3.47
2023-02-17T21:30:47.607Z,4.60
2023-02-17T21:35:56.936Z,4.90
2023-02-17T21:41:06.634Z,4.13
2023-02-17T21:46:12.209Z,3.47
2023-02-17T21:51:16.257Z,5.77
2023-02-17T21:56:22.087Z,3.70
2023-02-17T22:01:27.897Z,4.37
2023-02-17T22:06:34.919Z,5.13
2023-02-17T22:12:01.720Z,3.00
2023-02-17T22:17:05.669Z,2.87
2023-02-17T22:22:09.965Z,2.87
2023-02-17T22:27:13.894Z,3.23
2023-02-17T22:32:17.775Z,3.30
2023-02-17T22:37:21.762Z,2.47
2023-02-17T22:42:25.870Z,3.37
2023-02-17T22:47:29.763Z,4.20
2023-02-17T22:52:35.100Z,4.00
2023-02-17T22:57:38.922Z,3.60
2023-02-17T23:02:42.746Z,3.07
2023-02-17T23:07:46.526Z,3.33
2023-02-17T23:12:50.452Z,3.67
2023-02-17T23:17:57.834Z,5.03
2023-02-17T23:23:02.084Z,3.83
2023-02-17T23:28:06.851Z,3.87
2023-02-17T23:33:11.350Z,4.57
2023-02-17T23:38:18.978Z,4.23
2023-02-17T23:43:23.177Z,3.77
2023-02-17T23:48:26.879Z,2.80
2023-02-17T23:53:32.410Z,3.07
2023-02-17T23:58:36.624Z,3.33
